Time;durP1;ratioP1;P1;durP2;ratioP2;P2;SDS_P1;SDS_P2;PMS_P1;PMS_P2;Temp;Humidity;BMP_temperature;BMP_pressure;BME280_temperature;BME280_humidity;BME280_pressure;Samples;Min_cycle;Max_cycle;Signal;HPM_P1;HPM_P2
2023/05/06 00:01:03;;;;;;;9.57;8.57;;;;;;;;;;5091162;28;20048;-70
2023/05/06 00:03:29;;;;;;;10.15;9.05;;;;;;;;;;5088695;28;20395;-72
2023/05/06 00:05:55;;;;;;;10.25;9.13;;;;;;;;;;5091613;28;20050;-70
2023/05/06 00:08:21;;;;;;;10.50;9.27;;;;;;;;;;5090986;28;20039;-70
2023/05/06 00:10:47;;;;;;;10.50;8.70;;;;;;;;;;5090742;28;20620;-70
2023/05/06 00:13:13;;;;;;;10.70;9.38;;;;;;;;;;5087415;28;20080;-70
2023/05/06 00:15:39;;;;;;;9.60;8.40;;;;;;;;;;5088920;28;20483;-71
2023/05/06 00:18:05;;;;;;;10.35;8.90;;;;;;;;;;5087754;28;20040;-71
2023/05/06 00:20:32;;;;;;;10.48;8.73;;;;;;;;;;5089972;28;20054;-71
2023/05/06 00:22:58;;;;;;;11.13;8.02;;;;;;;;;;5090610;28;20398;-71
2023/05/06 00:25:24;;;;;;;10.32;8.60;;;;;;;;;;5083760;28;20044;-71
2023/05/06 00:27:50;;;;;;;10.13;8.80;;;;;;;;;;5084768;28;20041;-70
2023/05/06 00:30:16;;;;;;;9.88;8.70;;;;;;;;;;5090070;28;20059;-70
2023/05/06 00:32:42;;;;;;;10.52;9.02;;;;;;;;;;5086363;28;20044;-71
2023/05/06 00:35:08;;;;;;;9.50;8.25;;;;;;;;;;5089499;28;20047;-70
2023/05/06 00:37:34;;;;;;;9.70;8.13;;;;;;;;;;5089499;28;20055;-70
2023/05/06 00:40:01;;;;;;;13.13;8.18;;;;;;;;;;5089743;28;20479;-71
2023/05/06 00:42:27;;;;;;;9.68;8.25;;;;;;;;;;5090904;28;20395;-70
2023/05/06 00:44:52;;;;;;;10.63;8.13;;;;;;;;;;5095397;28;20040;-70
2023/05/06 00:47:20;;;;;;;8.75;7.65;;;;;;;;;;5089040;28;20047;-71
2023/05/06 00:49:47;;;;;;;9.05;8.10;;;;;;;;;;5081394;28;20052;-71
2023/05/06 00:52:13;;;;;;;11.95;9.18;;;;;;;;;;5089704;28;20138;-71
2023/05/06 00:54:39;;;;;;;8.88;7.95;;;;;;;;;;5089789;28;20080;-71
2023/05/06 00:57:05;;;;;;;9.80;8.77;;;;;;;;;;5090681;28;20070;-71
2023/05/06 00:59:31;;;;;;;10.13;8.75;;;;;;;;;;5070999;28;20044;-71
2023/05/06 01:01:58;;;;;;;10.27;8.63;;;;;;;;;;5087039;28;20062;-70
2023/05/06 01:04:24;;;;;;;9.10;8.13;;;;;;;;;;5081887;28;20090;-70
2023/05/06 01:06:58;;;;;;;9.27;8.15;;;;;;;;;;5091156;28;20040;-70
2023/05/06 01:09:24;;;;;;;10.32;8.80;;;;;;;;;;5087918;28;20472;-70
2023/05/06 01:11:54;;;;;;;10.15;8.30;;;;;;;;;;5091027;28;20092;-70
2023/05/06 01:14:26;;;;;;;9.30;7.88;;;;;;;;;;5088266;28;20048;-70
2023/05/06 01:16:54;;;;;;;9.35;7.88;;;;;;;;;;5092491;28;20054;-70
2023/05/06 01:19:33;;;;;;;9.25;7.30;;;;;;;;;;5086077;28;20048;-71
2023/05/06 01:22:02;;;;;;;8.57;7.68;;;;;;;;;;5084586;28;20081;-70
2023/05/06 01:24:38;;;;;;;10.68;8.07;;;;;;;;;;5091660;28;20070;-70
2023/05/06 01:27:04;;;;;;;8.07;7.15;;;;;;;;;;5091318;28;20502;-71
2023/05/06 01:29:30;;;;;;;11.00;7.57;;;;;;;;;;5085467;28;20036;-70
2023/05/06 01:31:58;;;;;;;9.95;7.82;;;;;;;;;;5084586;28;20059;-70
2023/05/06 01:34:27;;;;;;;8.48;7.47;;;;;;;;;;5084491;28;20068;-70
2023/05/06 01:36:58;;;;;;;7.60;6.80;;;;;;;;;;5072533;28;20076;-70
2023/05/06 01:39:25;;;;;;;8.43;7.53;;;;;;;;;;5070019;28;20072;-70
2023/05/06 01:41:52;;;;;;;8.70;7.80;;;;;;;;;;5070853;28;20074;-70
2023/05/06 01:44:21;;;;;;;9.52;7.45;;;;;;;;;;5076749;28;20044;-70
2023/05/06 01:46:47;;;;;;;7.95;7.10;;;;;;;;;;5081401;28;20048;-71
2023/05/06 01:49:14;;;;;;;8.35;7.53;;;;;;;;;;5089327;28;20047;-72
2023/05/06 01:51:40;;;;;;;9.15;7.72;;;;;;;;;;5081496;28;20051;-71
2023/05/06 01:54:06;;;;;;;9.55;8.00;;;;;;;;;;5082525;28;20054;-71
2023/05/06 01:56:32;;;;;;;8.85;7.60;;;;;;;;;;5080099;28;20059;-71
2023/05/06 01:58:59;;;;;;;9.23;7.20;;;;;;;;;;5090435;28;20047;-70
2023/05/06 02:01:25;;;;;;;8.70;7.78;;;;;;;;;;5088785;28;20044;-70
2023/05/06 02:03:51;;;;;;;9.85;8.27;;;;;;;;;;5091421;28;20040;-71
2023/05/06 02:06:17;;;;;;;8.40;7.50;;;;;;;;;;5092305;28;20051;-71
2023/05/06 02:08:43;;;;;;;8.55;7.38;;;;;;;;;;5088552;28;20063;-71
2023/05/06 02:11:09;;;;;;;8.93;7.30;;;;;;;;;;5084056;28;20063;-72
2023/05/06 02:13:35;;;;;;;9.60;7.60;;;;;;;;;;5086471;28;20479;-72
2023/05/06 02:16:01;;;;;;;9.65;7.88;;;;;;;;;;5091632;28;20039;-72
2023/05/06 02:18:27;;;;;;;9.15;7.60;;;;;;;;;;5085527;28;20044;-72
2023/05/06 02:20:53;;;;;;;9.65;8.10;;;;;;;;;;5098962;28;20135;-71
2023/05/06 02:23:19;;;;;;;9.88;8.23;;;;;;;;;;5087146;28;20101;-71
2023/05/06 02:25:45;;;;;;;9.30;7.40;;;;;;;;;;5090608;28;20127;-72
2023/05/06 02:28:11;;;;;;;9.35;7.88;;;;;;;;;;5087053;28;20079;-71
2023/05/06 02:30:37;;;;;;;10.18;8.57;;;;;;;;;;5081360;28;20082;-71
2023/05/06 02:33:03;;;;;;;9.75;8.23;;;;;;;;;;5089414;28;20551;-71
2023/05/06 02:35:29;;;;;;;9.57;8.10;;;;;;;;;;5087775;28;20078;-71
2023/05/06 02:37:55;;;;;;;8.77;7.47;;;;;;;;;;5092118;28;20107;-72
2023/05/06 02:40:21;;;;;;;10.45;8.45;;;;;;;;;;5090125;28;20044;-70
2023/05/06 02:42:47;;;;;;;9.02;7.60;;;;;;;;;;5088537;28;20086;-72
2023/05/06 02:45:13;;;;;;;9.15;8.02;;;;;;;;;;5080076;28;20036;-71
2023/05/06 02:47:39;;;;;;;10.43;8.15;;;;;;;;;;5077642;28;20422;-71
2023/05/06 02:50:05;;;;;;;10.30;7.82;;;;;;;;;;5087946;28;20532;-71
2023/05/06 02:52:34;;;;;;;10.05;8.30;;;;;;;;;;5083085;28;20051;-71
2023/05/06 02:55:01;;;;;;;10.30;8.20;;;;;;;;;;5091678;28;20056;-71
2023/05/06 02:57:39;;;;;;;9.80;8.75;;;;;;;;;;5081640;28;20137;-71
2023/05/06 03:00:05;;;;;;;9.60;7.60;;;;;;;;;;5087971;28;20165;-71
2023/05/06 03:02:31;;;;;;;8.30;7.28;;;;;;;;;;5080337;28;20051;-71
2023/05/06 03:04:57;;;;;;;9.52;8.18;;;;;;;;;;5084090;28;20065;-71
2023/05/06 03:07:23;;;;;;;10.07;8.40;;;;;;;;;;5090323;28;20056;-71
2023/05/06 03:09:49;;;;;;;10.13;8.52;;;;;;;;;;5086997;28;20046;-71
2023/05/06 03:12:15;;;;;;;12.95;9.38;;;;;;;;;;5092593;28;20058;-71
2023/05/06 03:14:41;;;;;;;11.93;9.48;;;;;;;;;;5084889;28;20036;-71
2023/05/06 03:17:07;;;;;;;11.32;9.25;;;;;;;;;;5093681;28;20070;-71
2023/05/06 03:19:33;;;;;;;12.25;10.43;;;;;;;;;;5079185;28;20048;-71
2023/05/06 03:21:59;;;;;;;13.07;11.05;;;;;;;;;;5088210;28;20048;-71
2023/05/06 03:24:25;;;;;;;13.20;11.20;;;;;;;;;;5082900;28;20044;-70
2023/05/06 03:26:51;;;;;;;13.80;11.05;;;;;;;;;;5077738;28;20050;-71
2023/05/06 03:29:17;;;;;;;13.15;10.88;;;;;;;;;;5112019;28;20044;-71
2023/05/06 03:31:43;;;;;;;14.57;10.45;;;;;;;;;;5079513;28;20049;-71
2023/05/06 03:34:09;;;;;;;14.20;10.95;;;;;;;;;;5073055;28;20110;-72
2023/05/06 03:36:35;;;;;;;15.27;12.40;;;;;;;;;;5089522;28;20663;-71
2023/05/06 03:39:01;;;;;;;14.25;12.07;;;;;;;;;;5091406;28;21805;-71
2023/05/06 03:41:28;;;;;;;15.75;12.00;;;;;;;;;;5076317;28;20041;-71
2023/05/06 03:43:54;;;;;;;15.18;12.27;;;;;;;;;;5080185;28;20403;-71
2023/05/06 03:46:21;;;;;;;12.73;11.07;;;;;;;;;;5110264;28;20040;-71
2023/05/06 03:48:47;;;;;;;15.32;11.98;;;;;;;;;;5078988;28;20049;-71
2023/05/06 03:51:13;;;;;;;13.10;11.48;;;;;;;;;;5077646;28;20514;-71
2023/05/06 03:53:39;;;;;;;15.15;12.65;;;;;;;;;;5079877;28;20437;-71
2023/05/06 03:56:05;;;;;;;14.10;12.60;;;;;;;;;;5091528;28;20051;-71
2023/05/06 03:58:31;;;;;;;15.88;13.30;;;;;;;;;;5094205;28;20495;-71
2023/05/06 04:00:59;;;;;;;16.52;12.98;;;;;;;;;;5093315;28;20040;-70
2023/05/06 04:03:25;;;;;;;16.70;13.45;;;;;;;;;;5096903;28;20064;-71
2023/05/06 04:05:51;;;;;;;15.05;11.93;;;;;;;;;;5109505;28;20039;-71
2023/05/06 04:08:17;;;;;;;13.63;11.65;;;;;;;;;;5102159;28;20466;-71
2023/05/06 04:10:44;;;;;;;12.13;9.70;;;;;;;;;;5085120;28;20446;-71
2023/05/06 04:13:10;;;;;;;11.00;9.88;;;;;;;;;;5073538;28;20098;-70
2023/05/06 04:15:36;;;;;;;13.60;10.02;;;;;;;;;;5082901;28;20044;-71
2023/05/06 04:18:02;;;;;;;12.25;10.13;;;;;;;;;;5085881;28;20047;-71
2023/05/06 04:20:28;;;;;;;10.80;8.93;;;;;;;;;;5113451;28;20044;-71
2023/05/06 04:22:54;;;;;;;11.65;9.48;;;;;;;;;;5088296;28;20047;-71
2023/05/06 04:25:21;;;;;;;11.18;9.15;;;;;;;;;;5078247;28;20041;-71
2023/05/06 04:27:47;;;;;;;11.07;8.75;;;;;;;;;;5072756;28;20048;-71
2023/05/06 04:30:13;;;;;;;10.95;9.00;;;;;;;;;;5072517;28;20076;-71
2023/05/06 04:32:39;;;;;;;10.77;9.40;;;;;;;;;;5072026;28;20045;-71
2023/05/06 04:35:05;;;;;;;11.93;9.82;;;;;;;;;;5079381;28;20092;-71
2023/05/06 04:37:32;;;;;;;10.18;8.57;;;;;;;;;;5100827;28;20078;-71
2023/05/06 04:39:58;;;;;;;11.50;8.65;;;;;;;;;;5088678;28;20082;-71
2023/05/06 04:42:24;;;;;;;11.40;9.38;;;;;;;;;;5070540;28;20456;-71
2023/05/06 04:44:50;;;;;;;11.25;8.45;;;;;;;;;;5072932;28;20123;-70
2023/05/06 04:47:16;;;;;;;11.10;9.43;;;;;;;;;;5074705;28;20044;-71
2023/05/06 04:49:42;;;;;;;10.43;8.85;;;;;;;;;;5089466;28;20088;-71
2023/05/06 04:52:08;;;;;;;13.43;9.45;;;;;;;;;;5092727;28;20052;-71
2023/05/06 04:54:34;;;;;;;10.95;9.55;;;;;;;;;;5091505;28;20052;-71
2023/05/06 04:57:02;;;;;;;11.15;8.98;;;;;;;;;;5091474;28;20094;-71
2023/05/06 04:59:28;;;;;;;11.77;9.88;;;;;;;;;;5088798;28;20093;-71
2023/05/06 05:01:54;;;;;;;12.63;9.82;;;;;;;;;;5080673;28;20049;-71
2023/05/06 05:04:20;;;;;;;11.75;9.90;;;;;;;;;;5071685;28;20047;-71
2023/05/06 05:06:46;;;;;;;13.15;10.18;;;;;;;;;;5072910;28;20131;-71
2023/05/06 05:09:12;;;;;;;13.50;11.13;;;;;;;;;;5086099;28;20047;-71
2023/05/06 05:11:38;;;;;;;12.35;10.63;;;;;;;;;;5098369;28;20040;-71
2023/05/06 05:14:04;;;;;;;14.65;10.80;;;;;;;;;;5086642;28;20097;-71
2023/05/06 05:16:30;;;;;;;12.82;10.88;;;;;;;;;;5083262;28;20126;-71
2023/05/06 05:18:56;;;;;;;12.88;10.27;;;;;;;;;;5084401;28;20135;-71
2023/05/06 05:21:22;;;;;;;13.93;11.02;;;;;;;;;;5083460;28;20044;-71
2023/05/06 05:23:48;;;;;;;14.50;10.95;;;;;;;;;;5088633;28;20145;-71
2023/05/06 05:26:14;;;;;;;13.15;10.75;;;;;;;;;;5090207;28;20040;-72
2023/05/06 05:28:40;;;;;;;12.57;10.52;;;;;;;;;;5082633;28;20041;-72
2023/05/06 05:31:06;;;;;;;12.80;11.07;;;;;;;;;;5083856;28;20076;-71
2023/05/06 05:33:32;;;;;;;14.65;10.77;;;;;;;;;;5086857;28;20048;-71
2023/05/06 05:35:58;;;;;;;13.25;10.40;;;;;;;;;;5091578;28;20407;-71
2023/05/06 05:38:24;;;;;;;13.32;11.13;;;;;;;;;;5079903;28;20123;-71
2023/05/06 05:40:50;;;;;;;13.05;11.02;;;;;;;;;;5091398;28;20050;-71
2023/05/06 05:43:24;;;;;;;13.38;10.85;;;;;;;;;;5086676;28;20048;-71
2023/05/06 05:45:50;;;;;;;13.02;10.63;;;;;;;;;;5090511;28;20059;-70
2023/05/06 05:48:16;;;;;;;12.85;10.88;;;;;;;;;;5080884;28;20483;-71
2023/05/06 05:50:42;;;;;;;14.23;11.50;;;;;;;;;;5085240;28;20075;-71
2023/05/06 05:53:09;;;;;;;13.93;10.75;;;;;;;;;;5089044;28;20047;-71
2023/05/06 05:55:34;;;;;;;13.73;10.95;;;;;;;;;;5076561;28;20355;-71
2023/05/06 05:58:01;;;;;;;13.55;11.32;;;;;;;;;;5071942;28;20044;-71
2023/05/06 06:00:26;;;;;;;13.27;11.00;;;;;;;;;;5076904;28;20044;-72
2023/05/06 06:02:52;;;;;;;14.50;11.35;;;;;;;;;;5097851;28;20047;-71
2023/05/06 06:05:18;;;;;;;12.93;11.38;;;;;;;;;;5089969;28;20475;-71
2023/05/06 06:07:45;;;;;;;13.95;11.13;;;;;;;;;;5070664;28;20052;-71
2023/05/06 06:10:12;;;;;;;19.83;10.00;;;;;;;;;;5071209;28;20051;-71
2023/05/06 06:12:38;;;;;;;12.93;11.02;;;;;;;;;;5082047;28;20052;-71
2023/05/06 06:15:05;;;;;;;11.50;9.93;;;;;;;;;;5090437;28;20047;-71
2023/05/06 06:17:31;;;;;;;13.60;10.23;;;;;;;;;;5087387;28;20051;-71
2023/05/06 06:19:58;;;;;;;12.93;10.88;;;;;;;;;;5108324;28;20074;-72
2023/05/06 06:22:25;;;;;;;12.65;10.65;;;;;;;;;;5090464;28;20368;-72
2023/05/06 06:24:52;;;;;;;14.40;11.52;;;;;;;;;;5089552;28;20056;-72
2023/05/06 06:27:19;;;;;;;15.98;11.90;;;;;;;;;;5084785;28;20058;-72
2023/05/06 06:29:48;;;;;;;14.00;11.20;;;;;;;;;;5081617;28;20047;-72
2023/05/06 06:32:14;;;;;;;14.63;11.00;;;;;;;;;;5083475;28;20087;-72
2023/05/06 06:34:40;;;;;;;16.52;12.30;;;;;;;;;;5091610;28;20108;-72
2023/05/06 06:37:09;;;;;;;12.90;10.48;;;;;;;;;;5091691;28;20111;-72
2023/05/06 06:39:35;;;;;;;15.52;12.55;;;;;;;;;;5080353;28;20048;-72
2023/05/06 06:42:05;;;;;;;14.98;11.98;;;;;;;;;;5069100;28;20041;-72
2023/05/06 06:44:32;;;;;;;14.10;11.68;;;;;;;;;;5074611;28;20051;-72
2023/05/06 06:46:58;;;;;;;14.70;12.05;;;;;;;;;;5093629;28;20150;-71
2023/05/06 06:49:26;;;;;;;15.60;12.40;;;;;;;;;;5083935;28;20106;-71
2023/05/06 06:51:52;;;;;;;14.60;12.18;;;;;;;;;;5103921;28;20075;-72
2023/05/06 06:54:18;;;;;;;14.45;11.80;;;;;;;;;;5093592;28;20084;-72
2023/05/06 06:56:44;;;;;;;16.08;12.27;;;;;;;;;;5093198;28;20047;-72
2023/05/06 06:59:10;;;;;;;16.27;12.70;;;;;;;;;;5084141;28;20048;-72
2023/05/06 07:01:36;;;;;;;16.92;13.18;;;;;;;;;;5091952;28;20533;-72
2023/05/06 07:04:02;;;;;;;19.45;13.40;;;;;;;;;;5092264;28;20440;-72
2023/05/06 07:06:28;;;;;;;16.42;13.45;;;;;;;;;;5094539;28;20032;-72
2023/05/06 07:08:54;;;;;;;18.95;14.43;;;;;;;;;;5097941;28;20048;-72
2023/05/06 07:11:20;;;;;;;16.50;14.00;;;;;;;;;;5098399;28;20043;-71
2023/05/06 07:13:46;;;;;;;17.77;14.15;;;;;;;;;;5080657;28;20044;-71
2023/05/06 07:16:12;;;;;;;17.92;14.43;;;;;;;;;;5072711;28;20041;-73
2023/05/06 07:18:38;;;;;;;18.88;14.32;;;;;;;;;;5076962;28;20048;-72
2023/05/06 07:21:04;;;;;;;20.40;15.85;;;;;;;;;;5089206;28;20058;-72
2023/05/06 07:23:30;;;;;;;19.25;15.52;;;;;;;;;;5101851;28;20498;-72
2023/05/06 07:25:57;;;;;;;17.30;15.43;;;;;;;;;;5097269;28;20134;-71
2023/05/06 07:28:23;;;;;;;19.02;16.85;;;;;;;;;;5107396;28;20052;-71
2023/05/06 07:30:50;;;;;;;17.95;15.98;;;;;;;;;;5090752;28;20047;-71
2023/05/06 07:33:16;;;;;;;21.75;18.83;;;;;;;;;;5083919;28;20044;-71
2023/05/06 07:35:42;;;;;;;23.90;17.77;;;;;;;;;;5078713;28;20063;-71
2023/05/06 07:38:08;;;;;;;21.05;16.55;;;;;;;;;;5072983;28;20492;-71
2023/05/06 07:40:34;;;;;;;22.45;18.33;;;;;;;;;;5083758;28;20048;-71
2023/05/06 07:43:00;;;;;;;22.23;17.48;;;;;;;;;;5095630;28;20391;-71
2023/05/06 07:45:26;;;;;;;25.67;20.52;;;;;;;;;;5105572;28;20036;-71
2023/05/06 07:47:52;;;;;;;23.05;18.17;;;;;;;;;;5087130;28;20068;-71
2023/05/06 07:50:18;;;;;;;23.13;18.88;;;;;;;;;;5073731;28;20047;-71
2023/05/06 07:52:44;;;;;;;23.20;18.80;;;;;;;;;;5078974;28;20167;-71
2023/05/06 07:55:10;;;;;;;25.30;20.30;;;;;;;;;;5086046;28;20056;-72
2023/05/06 07:57:36;;;;;;;25.25;21.00;;;;;;;;;;5090987;28;20056;-71
2023/05/06 08:00:03;;;;;;;29.88;24.27;;;;;;;;;;5093443;28;20044;-71
2023/05/06 08:02:30;;;;;;;29.58;24.17;;;;;;;;;;5086764;28;20040;-72
2023/05/06 08:04:56;;;;;;;35.83;29.35;;;;;;;;;;5085396;28;20135;-71
2023/05/06 08:07:22;;;;;;;40.50;31.63;;;;;;;;;;5106434;28;20073;-71
2023/05/06 08:09:57;;;;;;;26.27;22.40;;;;;;;;;;5112997;28;20090;-72
2023/05/06 08:12:23;;;;;;;23.08;20.40;;;;;;;;;;5079968;28;20059;-71
2023/05/06 08:14:49;;;;;;;22.52;19.65;;;;;;;;;;5071816;28;20135;-72
2023/05/06 08:17:15;;;;;;;25.98;19.58;;;;;;;;;;5080311;28;20124;-71
2023/05/06 08:19:42;;;;;;;26.42;20.83;;;;;;;;;;5087529;28;20077;-71
2023/05/06 08:22:08;;;;;;;35.00;26.77;;;;;;;;;;5076270;28;20408;-71
2023/05/06 08:24:37;;;;;;;27.35;22.73;;;;;;;;;;5071560;28;20044;-71
2023/05/06 08:27:03;;;;;;;26.17;22.52;;;;;;;;;;5081235;28;20040;-71
2023/05/06 08:29:29;;;;;;;23.80;20.98;;;;;;;;;;5078953;28;20048;-71
2023/05/06 08:31:56;;;;;;;26.63;21.80;;;;;;;;;;5074069;28;20130;-71
2023/05/06 08:34:22;;;;;;;25.50;20.92;;;;;;;;;;5081048;28;20052;-71
2023/05/06 08:36:48;;;;;;;28.02;22.30;;;;;;;;;;5081299;28;20414;-71
2023/05/06 08:39:14;;;;;;;24.65;21.45;;;;;;;;;;5078703;28;20044;-72
2023/05/06 08:41:40;;;;;;;25.55;21.10;;;;;;;;;;5079449;28;20476;-71
2023/05/06 08:44:07;;;;;;;26.73;21.95;;;;;;;;;;5087061;28;20048;-71
2023/05/06 08:46:33;;;;;;;26.83;22.00;;;;;;;;;;5084998;28;20040;-71
2023/05/06 08:49:00;;;;;;;27.73;22.73;;;;;;;;;;5075667;28;20171;-70
2023/05/06 08:51:28;;;;;;;26.30;23.05;;;;;;;;;;5083456;28;20460;-71
2023/05/06 08:53:54;;;;;;;27.08;24.05;;;;;;;;;;5079360;28;20115;-71
2023/05/06 08:56:23;;;;;;;26.70;23.75;;;;;;;;;;5083234;28;20048;-72
2023/05/06 08:58:51;;;;;;;37.88;32.15;;;;;;;;;;5085413;28;20044;-71
2023/05/06 09:01:25;;;;;;;30.83;25.45;;;;;;;;;;5089596;28;20071;-71
2023/05/06 09:03:51;;;;;;;29.88;25.45;;;;;;;;;;5085772;28;20048;-71
2023/05/06 09:06:17;;;;;;;26.60;23.70;;;;;;;;;;5090793;28;20036;-71
2023/05/06 09:08:43;;;;;;;30.02;24.40;;;;;;;;;;5089180;28;20043;-71
2023/05/06 09:11:20;;;;;;;31.23;25.40;;;;;;;;;;5085603;28;20391;-71
2023/05/06 09:13:46;;;;;;;31.42;26.52;;;;;;;;;;5077269;28;20054;-71
2023/05/06 09:16:26;;;;;;;31.17;25.42;;;;;;;;;;5080926;28;20094;-71
2023/05/06 09:18:52;;;;;;;32.58;27.17;;;;;;;;;;5081533;28;20759;-71
2023/05/06 09:21:18;;;;;;;33.08;27.10;;;;;;;;;;5075724;28;20044;-73
2023/05/06 09:23:44;;;;;;;30.92;27.35;;;;;;;;;;5080480;28;20040;-72
2023/05/06 09:26:10;;;;;;;34.58;28.80;;;;;;;;;;5084924;28;20183;-71
2023/05/06 09:28:36;;;;;;;33.22;27.63;;;;;;;;;;5087971;28;20495;-72
2023/05/06 09:31:03;;;;;;;31.13;26.15;;;;;;;;;;5087464;28;20074;-70
2023/05/06 09:33:29;;;;;;;30.85;27.38;;;;;;;;;;5085989;28;20403;-71
2023/05/06 09:35:55;;;;;;;32.15;27.55;;;;;;;;;;5078115;28;20044;-71
2023/05/06 09:38:21;;;;;;;31.48;27.65;;;;;;;;;;5083182;28;20449;-72
2023/05/06 09:40:47;;;;;;;32.65;28.10;;;;;;;;;;5090218;28;20073;-71
2023/05/06 09:43:14;;;;;;;33.88;27.80;;;;;;;;;;5091902;28;20044;-71
2023/05/06 09:45:40;;;;;;;30.42;27.08;;;;;;;;;;5087574;28;20039;-72
2023/05/06 09:48:08;;;;;;;33.17;29.48;;;;;;;;;;5090258;28;20643;-71
2023/05/06 09:50:35;;;;;;;30.52;27.00;;;;;;;;;;5081735;28;20248;-71
2023/05/06 09:53:04;;;;;;;35.88;30.13;;;;;;;;;;5089262;28;20067;-71
2023/05/06 09:55:30;;;;;;;31.95;28.10;;;;;;;;;;5084267;28;20044;-71
2023/05/06 09:57:57;;;;;;;32.75;29.27;;;;;;;;;;5080151;28;20131;-72
2023/05/06 10:00:26;;;;;;;36.03;30.70;;;;;;;;;;5081585;28;20040;-72
2023/05/06 10:02:53;;;;;;;39.90;33.85;;;;;;;;;;5086428;28;20051;-71
2023/05/06 10:05:20;;;;;;;39.67;32.45;;;;;;;;;;5081738;28;20063;-71
2023/05/06 10:07:48;;;;;;;38.60;32.50;;;;;;;;;;5081343;28;20397;-72
2023/05/06 10:10:15;;;;;;;40.17;31.90;;;;;;;;;;5072324;28;20483;-74
2023/05/06 10:12:41;;;;;;;37.83;32.28;;;;;;;;;;5070505;28;20040;-73
2023/05/06 10:15:07;;;;;;;39.45;31.70;;;;;;;;;;5088076;28;20043;-73
2023/05/06 10:17:34;;;;;;;35.47;30.70;;;;;;;;;;5090271;28;20136;-73
2023/05/06 10:20:01;;;;;;;41.38;34.45;;;;;;;;;;5083151;28;20094;-74
2023/05/06 10:22:42;;;;;;;40.58;35.10;;;;;;;;;;5080084;28;20048;-74
2023/05/06 10:25:34;;;;;;;43.55;34.10;;;;;;;;;;5073962;28;20048;-74
2023/05/06 10:28:00;;;;;;;42.70;34.50;;;;;;;;;;5083591;28;20047;-74
2023/05/06 10:30:27;;;;;;;45.97;36.35;;;;;;;;;;5077678;28;20047;-74
2023/05/06 10:32:56;;;;;;;41.88;34.15;;;;;;;;;;5090358;28;20134;-73
2023/05/06 10:35:22;;;;;;;45.42;36.15;;;;;;;;;;5079838;28;20071;-73
2023/05/06 10:37:50;;;;;;;43.10;36.22;;;;;;;;;;5089910;28;20563;-73
2023/05/06 10:40:16;;;;;;;38.42;33.30;;;;;;;;;;5089359;28;20051;-73
2023/05/06 10:42:42;;;;;;;38.08;32.03;;;;;;;;;;5087538;28;20131;-73
2023/05/06 10:45:09;;;;;;;42.28;33.92;;;;;;;;;;5080345;28;20490;-73
2023/05/06 10:47:54;;;;;;;41.03;33.95;;;;;;;;;;5086801;28;20051;-72
2023/05/06 10:50:22;;;;;;;42.55;34.72;;;;;;;;;;5087603;28;20402;-72
2023/05/06 10:52:49;;;;;;;45.03;36.03;;;;;;;;;;5082535;28;20502;-75
2023/05/06 10:55:25;;;;;;;43.03;35.55;;;;;;;;;;5068392;28;20396;-74
2023/05/06 10:57:54;;;;;;;43.88;34.15;;;;;;;;;;5080276;28;21464;-74
2023/05/06 11:00:21;;;;;;;39.92;31.67;;;;;;;;;;5080167;28;20046;-75
2023/05/06 11:02:50;;;;;;;36.33;29.95;;;;;;;;;;5071756;28;20062;-77
2023/05/06 11:05:16;;;;;;;41.58;31.58;;;;;;;;;;5084115;28;20048;-78
2023/05/06 11:07:42;;;;;;;39.58;32.95;;;;;;;;;;5079007;28;20529;-77
2023/05/06 11:10:10;;;;;;;35.13;30.83;;;;;;;;;;5083841;28;20052;-78
2023/05/06 11:12:44;;;;;;;30.92;25.48;;;;;;;;;;5081443;28;20854;-79
2023/05/06 11:15:26;;;;;;;26.13;19.08;;;;;;;;;;5074323;28;20060;-77
2023/05/06 11:17:54;;;;;;;29.55;20.95;;;;;;;;;;4985347;28;20048;-77
2023/05/06 11:20:21;;;;;;;22.77;15.30;;;;;;;;;;5038134;28;20498;-76
2023/05/06 11:22:48;;;;;;;21.63;15.50;;;;;;;;;;5034113;28;20122;-77
2023/05/06 11:25:14;;;;;;;16.60;11.50;;;;;;;;;;5039649;28;20052;-77
2023/05/06 11:27:40;;;;;;;17.50;12.25;;;;;;;;;;5037040;28;20056;-77
2023/05/06 11:30:12;;;;;;;15.52;10.57;;;;;;;;;;5038501;28;20041;-77
2023/05/06 11:32:40;;;;;;;14.00;7.43;;;;;;;;;;5039763;28;20053;-77
2023/05/06 11:35:06;;;;;;;13.90;8.32;;;;;;;;;;5040432;28;20056;-77
2023/05/06 11:37:32;;;;;;;14.07;7.30;;;;;;;;;;5039655;28;20059;-76
2023/05/06 11:39:58;;;;;;;11.48;7.18;;;;;;;;;;5051040;28;20180;-76
2023/05/06 11:42:25;;;;;;;17.05;7.32;;;;;;;;;;5040062;28;20051;-76
2023/05/06 11:44:56;;;;;;;22.33;15.93;;;;;;;;;;5043722;28;20053;-76
2023/05/06 11:47:23;;;;;;;23.25;17.60;;;;;;;;;;5052981;28;20044;-76
2023/05/06 11:49:54;;;;;;;25.33;16.40;;;;;;;;;;5046090;28;20037;-77
2023/05/06 11:52:20;;;;;;;17.73;13.00;;;;;;;;;;5033664;28;20046;-76
2023/05/06 11:54:46;;;;;;;18.95;12.80;;;;;;;;;;5050804;28;20516;-77
2023/05/06 11:57:13;;;;;;;12.88;7.50;;;;;;;;;;5051924;28;20053;-77
2023/05/06 11:59:40;;;;;;;15.68;10.80;;;;;;;;;;5043585;28;20063;-77
2023/05/06 12:02:07;;;;;;;16.92;10.98;;;;;;;;;;5047069;28;20511;-77
2023/05/06 12:04:44;;;;;;;18.15;10.73;;;;;;;;;;5045610;28;20045;-76
2023/05/06 12:07:11;;;;;;;18.63;9.35;;;;;;;;;;5032600;28;20049;-76
2023/05/06 12:09:41;;;;;;;13.40;7.10;;;;;;;;;;5041468;28;20740;-77
2023/05/06 12:12:08;;;;;;;15.63;9.77;;;;;;;;;;5052623;28;20041;-77
2023/05/06 12:14:35;;;;;;;15.57;10.15;;;;;;;;;;5045045;28;20401;-77
2023/05/06 12:17:02;;;;;;;17.63;11.45;;;;;;;;;;5048631;28;20049;-78
2023/05/06 12:19:28;;;;;;;17.98;10.52;;;;;;;;;;5039240;28;20048;-77
2023/05/06 12:21:54;;;;;;;19.20;11.25;;;;;;;;;;5053037;28;20041;-77
2023/05/06 12:24:29;;;;;;;14.05;9.98;;;;;;;;;;5050620;28;20049;-77
2023/05/06 12:26:55;;;;;;;14.27;6.63;;;;;;;;;;5049906;28;20683;-77
2023/05/06 12:29:21;;;;;;;12.45;6.10;;;;;;;;;;5083876;28;20488;-77
2023/05/06 12:31:48;;;;;;;18.80;12.80;;;;;;;;;;5046733;28;20569;-77
2023/05/06 12:34:16;;;;;;;19.10;11.40;;;;;;;;;;5047479;28;20496;-78
2023/05/06 12:36:44;;;;;;;18.92;12.10;;;;;;;;;;5050724;28;20049;-77
2023/05/06 12:39:10;;;;;;;18.15;11.02;;;;;;;;;;5051667;28;20181;-77
2023/05/06 12:41:38;;;;;;;18.38;10.57;;;;;;;;;;5033271;28;20041;-77
2023/05/06 12:44:24;;;;;;;16.05;7.95;;;;;;;;;;5047597;28;20395;-77
2023/05/06 12:46:54;;;;;;;15.68;8.77;;;;;;;;;;5045553;28;20045;-76
2023/05/06 12:49:20;;;;;;;16.58;10.13;;;;;;;;;;5037238;28;20044;-76
2023/05/06 12:51:46;;;;;;;17.55;10.85;;;;;;;;;;5049128;28;20761;-78
2023/05/06 12:54:30;;;;;;;16.92;8.93;;;;;;;;;;5046160;28;20119;-78
2023/05/06 12:56:56;;;;;;;15.32;10.00;;;;;;;;;;5040505;28;20052;-78
2023/05/06 12:59:25;;;;;;;17.38;10.55;;;;;;;;;;5036338;28;20987;-76
2023/05/06 13:01:51;;;;;;;19.17;10.45;;;;;;;;;;5030238;28;20073;-77
2023/05/06 13:04:20;;;;;;;19.58;11.82;;;;;;;;;;5037689;28;20045;-76
2023/05/06 13:06:46;;;;;;;19.50;14.07;;;;;;;;;;5048723;28;20044;-76
2023/05/06 13:09:12;;;;;;;19.52;12.20;;;;;;;;;;5051997;28;20045;-76
2023/05/06 13:11:38;;;;;;;18.90;11.38;;;;;;;;;;5037297;28;20052;-76
2023/05/06 13:14:04;;;;;;;21.73;14.75;;;;;;;;;;5037131;28;20048;-77
2023/05/06 13:16:30;;;;;;;20.27;15.18;;;;;;;;;;5050369;28;20147;-77
2023/05/06 13:18:56;;;;;;;19.50;14.48;;;;;;;;;;5069939;28;20049;-77
2023/05/06 13:21:22;;;;;;;18.38;12.52;;;;;;;;;;5033194;28;20041;-76
2023/05/06 13:23:49;;;;;;;23.35;15.93;;;;;;;;;;5030333;28;20464;-77
2023/05/06 13:26:16;;;;;;;22.45;15.82;;;;;;;;;;5049949;28;20056;-77
2023/05/06 13:28:42;;;;;;;24.50;16.50;;;;;;;;;;5084188;28;20128;-76
2023/05/06 13:31:08;;;;;;;24.65;15.70;;;;;;;;;;5073967;28;20049;-77
2023/05/06 13:33:34;;;;;;;22.90;13.85;;;;;;;;;;5029725;28;20111;-77
2023/05/06 13:36:00;;;;;;;18.45;12.48;;;;;;;;;;5051266;28;20511;-76
2023/05/06 13:38:26;;;;;;;19.88;13.82;;;;;;;;;;5044324;28;20114;-76
2023/05/06 13:40:53;;;;;;;19.77;13.70;;;;;;;;;;5049813;28;20048;-76
2023/05/06 13:43:19;;;;;;;18.92;13.68;;;;;;;;;;5050228;28;20080;-77
2023/05/06 13:45:45;;;;;;;17.23;13.35;;;;;;;;;;5042721;28;20045;-77
2023/05/06 13:48:12;;;;;;;21.50;14.10;;;;;;;;;;5083728;28;20041;-77
2023/05/06 13:50:38;;;;;;;18.02;12.48;;;;;;;;;;5038797;28;20041;-76
2023/05/06 13:53:04;;;;;;;22.77;14.25;;;;;;;;;;5047946;28;20045;-76
2023/05/06 13:55:30;;;;;;;20.77;13.73;;;;;;;;;;5071340;28;20492;-75
2023/05/06 13:57:56;;;;;;;21.98;14.02;;;;;;;;;;5046804;28;20048;-75
2023/05/06 14:00:22;;;;;;;21.27;14.68;;;;;;;;;;5039038;28;20045;-76
2023/05/06 14:02:48;;;;;;;21.02;15.00;;;;;;;;;;5051180;28;20049;-75
2023/05/06 14:05:14;;;;;;;24.15;15.43;;;;;;;;;;5051356;28;20551;-75
2023/05/06 14:07:40;;;;;;;22.67;16.33;;;;;;;;;;5050847;28;20131;-75
2023/05/06 14:10:07;;;;;;;22.88;15.85;;;;;;;;;;5049979;28;20132;-76
2023/05/06 14:12:33;;;;;;;22.30;15.70;;;;;;;;;;5041829;28;20041;-76
2023/05/06 14:14:59;;;;;;;24.40;16.33;;;;;;;;;;5039347;28;20048;-76
2023/05/06 14:17:25;;;;;;;21.23;16.63;;;;;;;;;;5049164;28;20401;-76
2023/05/06 14:19:51;;;;;;;20.23;15.35;;;;;;;;;;5072453;28;20056;-78
2023/05/06 14:22:17;;;;;;;21.20;15.23;;;;;;;;;;5082622;28;20053;-78